KSEM/SEM METAR and TAF weather

Enter ICAO airport designator
Station Type Date Time Source
KSEM METAR 2021/01/22 05:55 UTC NOAA

KSEM 220555Z AUTO 05004KT 5SM -RA SCT008 BKN033 OVC110 13/13 A2994 RMK AO2


Station Type Date Time Source
KSEM Decoded METAR 2021/01/22 05:55 UTC NOAA

Craig Field / Selma, AL, United States (KSEM) 32-21N 086-59W
Jan 22, 2021 - 12:55 AM EST / 2021.01.22 0555 UTC
Wind: from the NE (050 degrees) at 5 MPH (4 KT):0
Visibility: 5 mile(s):0
Sky conditions: overcast
Weather: light rain
Temperature: 55 F (13 C)
Dew Point: 55 F (13 C)
Relative Humidity: 100%
Pressure (altimeter): 29.94 in. Hg (1013 hPa)
ob: KSEM 220555Z AUTO 05004KT 5SM -RA SCT008 BKN033 OVC110 13/13 A2994 RMK AO2
cycle: 6

Station Type Date Time Source
KSEM TAF UTC NOAA

Error!

Example: see airport list